Time;durP1;ratioP1;P1;durP2;ratioP2;P2;SDS_P1;SDS_P2;PMS_P1;PMS_P2;Temp;Humidity;BMP_temperature;BMP_pressure;BME280_temperature;BME280_humidity;BME280_pressure;Samples;Min_cycle;Max_cycle;Signal;HPM_P1;HPM_P2
2020/12/21 00:00:09;;;;;;;23.87;12.63;;;;;;;-0.16;90.19;97625.28;1728928;82;21511;-83
2020/12/21 00:02:39;;;;;;;17.52;9.83;;;;;;;-0.14;90.16;97616.80;1729010;83;21088;-83
2020/12/21 00:05:07;;;;;;;21.60;11.95;;;;;;;-0.15;90.15;97621.68;1728825;83;21154;-83
2020/12/21 00:07:35;;;;;;;19.55;9.88;;;;;;;-0.17;90.14;97615.84;1728875;83;21503;-83
2020/12/21 00:10:05;;;;;;;18.23;10.70;;;;;;;-0.31;90.14;97603.18;1729038;82;21112;-83
2020/12/21 00:12:32;;;;;;;22.80;10.43;;;;;;;-0.31;90.14;97603.18;1729052;83;21506;-83
2020/12/21 00:15:00;;;;;;;16.62;8.30;;;;;;;-0.23;90.22;97619.20;1728935;83;21502;-83
2020/12/21 00:17:28;;;;;;;23.50;13.10;;;;;;;-0.26;90.20;97613.06;1728859;83;21138;-83
2020/12/21 00:19:55;;;;;;;27.05;16.27;;;;;;;-0.37;90.16;97595.31;1729024;82;21142;-84
2020/12/21 00:22:22;;;;;;;17.45;10.63;;;;;;;-0.27;90.25;97614.56;1728911;83;21300;-83
2020/12/21 00:24:50;;;;;;;30.30;16.67;;;;;;;-0.27;90.40;97606.25;1728876;83;21131;-83
2020/12/21 00:27:17;;;;;;;22.37;14.40;;;;;;;-0.27;90.27;97608.85;1728760;83;21146;-83
2020/12/21 00:29:44;;;;;;;26.20;14.18;;;;;;;-0.28;90.19;97608.55;1728915;82;21142;-83
2020/12/21 00:32:11;;;;;;;22.82;12.15;;;;;;;-0.28;90.22;97625.48;1728820;83;21150;-83
2020/12/21 00:34:38;;;;;;;17.12;9.13;;;;;;;-0.29;90.19;97614.72;1728842;83;21120;-83
2020/12/21 00:37:06;;;;;;;22.40;11.33;;;;;;;-0.28;90.29;97618.97;1728732;83;21134;-83
2020/12/21 00:39:34;;;;;;;14.30;7.83;;;;;;;-0.22;90.26;97618.71;1729009;82;21464;-83
2020/12/21 00:42:01;;;;;;;17.52;8.50;;;;;;;-0.23;90.31;97612.69;1728730;83;21280;-83
2020/12/21 00:44:28;;;;;;;19.05;12.37;;;;;;;-0.17;90.20;97619.76;1728856;83;21273;-83
2020/12/21 00:46:55;;;;;;;17.87;9.18;;;;;;;-0.14;90.23;97636.35;1728768;83;21479;-83
2020/12/21 00:49:22;;;;;;;21.50;11.75;;;;;;;-0.12;90.22;97629.65;1728847;83;21150;-83
2020/12/21 00:51:49;;;;;;;19.23;10.95;;;;;;;-0.08;90.10;97630.38;1728767;82;21150;-83
2020/12/21 00:54:16;;;;;;;22.30;12.68;;;;;;;-0.08;90.03;97625.67;1728893;83;21158;-83
2020/12/21 00:56:43;;;;;;;15.83;8.88;;;;;;;-0.11;89.92;97624.25;1728742;83;21132;-83
2020/12/21 00:59:10;;;;;;;14.60;8.83;;;;;;;-0.11;89.90;97630.77;1728916;83;21284;-83
2020/12/21 01:01:37;;;;;;;17.82;11.40;;;;;;;-0.16;89.83;97628.38;1728924;82;21143;-83
2020/12/21 01:04:05;;;;;;;19.12;8.80;;;;;;;-0.26;89.71;97635.22;1730445;83;21177;-83
2020/12/21 01:06:34;;;;;;;17.30;8.40;;;;;;;-0.26;89.71;97635.22;1734173;83;21206;-83
2020/12/21 01:09:01;;;;;;;19.30;10.25;;;;;;;-0.27;89.96;97629.70;1734289;83;21332;-83
2020/12/21 01:11:29;;;;;;;19.90;9.88;;;;;;;-0.27;90.11;97633.61;1734138;81;21628;-83
2020/12/21 01:13:57;;;;;;;26.42;14.93;;;;;;;-0.29;89.75;97630.34;1734254;83;21158;-83
2020/12/21 01:16:25;;;;;;;18.87;11.28;;;;;;;-0.30;89.92;97640.46;1734177;82;21288;-82
2020/12/21 01:18:53;;;;;;;25.43;15.40;;;;;;;-0.33;89.84;97635.63;1734280;82;21272;-83
2020/12/21 01:21:26;;;;;;;24.30;13.55;;;;;;;-0.42;89.60;97626.33;1734345;81;21524;-83
2020/12/21 01:23:56;;;;;;;22.52;13.62;;;;;;;-0.42;89.60;97626.33;1734452;83;21464;-83
2020/12/21 01:26:25;;;;;;;22.00;11.57;;;;;;;-0.45;89.53;97627.47;1733998;83;21123;-83
2020/12/21 01:28:52;;;;;;;22.90;14.45;;;;;;;-0.47;89.48;97616.93;1734365;82;21143;-83
2020/12/21 01:31:21;;;;;;;27.73;15.30;;;;;;;-0.49;89.49;97616.31;1734234;81;21134;-83
2020/12/21 01:33:51;;;;;;;27.20;14.80;;;;;;;-0.51;89.58;97619.59;1734274;82;21123;-83
2020/12/21 01:36:20;;;;;;;21.13;11.00;;;;;;;-0.57;89.36;97621.12;1734564;83;21293;-83
2020/12/21 01:38:48;;;;;;;19.23;11.85;;;;;;;-0.60;89.57;97610.58;1734319;82;22211;-83
2020/12/21 01:41:15;;;;;;;22.52;12.50;;;;;;;-0.66;89.91;97610.52;1734310;81;21138;-83
2020/12/21 01:43:42;;;;;;;25.57;14.80;;;;;;;-0.66;89.91;97610.52;1734158;83;21103;-83
2020/12/21 01:46:13;;;;;;;22.35;12.60;;;;;;;-0.74;89.92;97615.31;1734215;83;21119;-83
2020/12/21 01:48:43;;;;;;;30.15;15.90;;;;;;;-0.74;89.92;97615.31;1734343;83;21296;-83
2020/12/21 01:51:24;;;;;;;24.70;14.40;;;;;;;-0.77;89.80;97605.27;1734782;81;21280;-83
2020/12/21 01:53:52;;;;;;;22.87;12.33;;;;;;;-0.77;89.95;97599.25;1734159;82;21135;-83
2020/12/21 01:56:20;;;;;;;14.53;8.93;;;;;;;-0.77;89.95;97599.25;1734204;83;21510;-83
2020/12/21 01:58:48;;;;;;;20.27;12.20;;;;;;;-0.49;90.05;97608.50;1734197;83;21514;-83
2020/12/21 02:01:18;;;;;;;19.37;11.30;;;;;;;-0.49;90.05;97608.50;1734314;81;21637;-83
2020/12/21 02:03:48;;;;;;;19.42;11.22;;;;;;;-0.39;90.06;97607.22;1734542;82;21304;-82
2020/12/21 02:06:17;;;;;;;20.80;13.10;;;;;;;-0.39;89.91;97602.50;1735136;83;21176;-83
2020/12/21 02:08:44;;;;;;;19.12;10.35;;;;;;;-0.42;89.74;97606.29;1734963;82;21144;-83
2020/12/21 02:11:11;;;;;;;12.28;7.28;;;;;;;-0.44;89.66;97608.25;1735006;81;21179;-83
2020/12/21 02:13:38;;;;;;;17.00;7.67;;;;;;;-0.42;89.78;97596.37;1734939;83;21146;-83
2020/12/21 02:16:05;;;;;;;18.55;9.98;;;;;;;-0.42;89.81;97606.79;1735072;83;21111;-83
2020/12/21 02:18:32;;;;;;;13.48;8.13;;;;;;;-0.48;89.87;97603.10;1734923;83;21111;-83
2020/12/21 02:20:59;;;;;;;18.73;10.05;;;;;;;-0.48;89.87;97603.10;1734991;81;21498;-83
2020/12/21 02:23:26;;;;;;;15.58;8.08;;;;;;;-0.45;89.94;97609.73;1735016;82;21521;-83
2020/12/21 02:25:52;;;;;;;23.70;12.82;;;;;;;-0.45;89.94;97604.53;1735252;83;21162;-83
2020/12/21 02:28:19;;;;;;;22.90;13.13;;;;;;;-0.48;89.74;97603.10;1735124;82;21163;-83
2020/12/21 02:30:48;;;;;;;19.92;11.25;;;;;;;-0.54;89.60;97595.23;1734978;81;21135;-83
2020/12/21 02:33:16;;;;;;;24.35;12.88;;;;;;;-0.64;89.52;97598.92;1734989;82;21135;-83
2020/12/21 02:35:43;;;;;;;21.12;12.15;;;;;;;-0.64;89.52;97598.92;1734930;82;21514;-83
2020/12/21 02:38:10;;;;;;;20.55;12.73;;;;;;;-0.74;89.33;97601.48;1735020;82;21184;-83
2020/12/21 02:40:40;;;;;;;24.12;14.18;;;;;;;-0.74;89.33;97601.48;1735051;81;21150;-83
2020/12/21 02:43:07;;;;;;;25.57;14.90;;;;;;;-0.81;89.33;97604.52;1735146;83;21114;-83
2020/12/21 02:45:34;;;;;;;22.05;14.03;;;;;;;-0.87;89.27;97607.34;1734971;83;21134;-83
2020/12/21 02:48:01;;;;;;;21.65;12.78;;;;;;;-0.88;89.27;97610.13;1735012;83;21159;-83
2020/12/21 02:50:28;;;;;;;22.20;12.80;;;;;;;-0.91;89.30;97606.90;1735063;81;21528;-83
2020/12/21 02:52:55;;;;;;;23.70;14.05;;;;;;;-0.91;89.38;97604.79;1734908;82;21542;-83
2020/12/21 02:55:21;;;;;;;22.40;13.85;;;;;;;-1.03;89.28;97601.02;1735014;83;21523;-83
2020/12/21 02:57:49;;;;;;;30.23;15.40;;;;;;;-1.03;89.28;97601.02;1734915;82;21197;-83
2020/12/21 03:00:16;;;;;;;20.00;12.95;;;;;;;-1.10;89.13;97602.25;1754214;81;21475;-83
2020/12/21 03:02:43;;;;;;;21.80;11.75;;;;;;;-0.96;89.50;97615.75;1765300;81;21130;-83
2020/12/21 03:05:11;;;;;;;22.27;13.20;;;;;;;-0.91;89.91;97606.09;1761919;81;21159;-83
2020/12/21 03:07:38;;;;;;;21.33;13.15;;;;;;;-0.98;89.49;97604.72;1758847;82;21510;-83
2020/12/21 03:10:05;;;;;;;25.08;14.58;;;;;;;-0.98;89.49;97604.72;1758722;82;21160;-83
2020/12/21 03:12:32;;;;;;;15.55;9.35;;;;;;;-0.94;89.76;97615.57;1744229;82;21130;-83
2020/12/21 03:14:59;;;;;;;22.80;13.43;;;;;;;-0.99;89.74;97612.68;1728666;83;21650;-83
2020/12/21 03:17:26;;;;;;;23.92;12.28;;;;;;;-0.99;89.74;97612.68;1728720;83;21280;-83
2020/12/21 03:19:53;;;;;;;21.82;12.28;;;;;;;-0.84;89.83;97617.91;1728619;82;21529;-82
2020/12/21 03:22:20;;;;;;;24.43;13.78;;;;;;;-0.81;89.82;97625.34;1728754;83;21657;-83
2020/12/21 03:24:47;;;;;;;27.52;15.60;;;;;;;-0.80;89.70;97629.07;1728769;83;21130;-83
2020/12/21 03:27:14;;;;;;;23.60;13.05;;;;;;;-0.83;89.62;97629.44;1728790;83;21150;-83
2020/12/21 03:29:41;;;;;;;24.55;13.05;;;;;;;-0.95;89.58;97622.57;1728750;82;21155;-83
2020/12/21 03:32:08;;;;;;;22.32;12.60;;;;;;;-0.86;89.58;97632.38;1728734;83;21610;-83
2020/12/21 03:34:35;;;;;;;23.20;13.78;;;;;;;-0.83;89.69;97641.16;1728682;83;21546;-83
2020/12/21 03:37:02;;;;;;;23.40;12.73;;;;;;;-0.79;89.81;97645.00;1728781;83;21554;-83
2020/12/21 03:39:28;;;;;;;20.77;12.03;;;;;;;-0.74;89.89;97632.73;1728734;82;21107;-83
2020/12/21 03:41:55;;;;;;;20.23;11.35;;;;;;;-0.72;89.87;97635.47;1728778;83;21523;-83
2020/12/21 03:44:22;;;;;;;19.35;12.58;;;;;;;-0.71;89.85;97634.97;1728766;83;21107;-83
2020/12/21 03:46:49;;;;;;;23.60;13.22;;;;;;;-0.82;89.76;97612.83;1728701;83;21278;-83
2020/12/21 03:49:16;;;;;;;22.30;12.10;;;;;;;-0.74;89.76;97623.13;1728740;83;21526;-83
2020/12/21 03:51:43;;;;;;;22.30;13.58;;;;;;;-0.76;89.71;97629.02;1728715;82;21653;-83
2020/12/21 03:54:10;;;;;;;13.80;7.85;;;;;;;-0.78;89.68;97634.90;1728755;83;21155;-83
2020/12/21 03:56:39;;;;;;;19.45;12.58;;;;;;;-0.81;89.75;97628.76;1728688;83;21269;-83
2020/12/21 03:59:05;;;;;;;19.75;11.88;;;;;;;-0.85;89.70;97630.58;1728701;83;21527;-83
2020/12/21 04:01:32;;;;;;;16.73;10.85;;;;;;;-0.96;89.79;97614.45;1728716;82;21115;-83
2020/12/21 04:03:59;;;;;;;17.32;9.88;;;;;;;-0.96;89.79;97614.45;1728673;83;21273;-83
2020/12/21 04:06:26;;;;;;;19.15;10.65;;;;;;;-0.82;89.91;97625.04;1728641;83;21289;-83
2020/12/21 04:08:53;;;;;;;19.98;11.57;;;;;;;-0.94;90.02;97620.28;1728679;83;21273;-83
2020/12/21 04:11:20;;;;;;;20.05;11.20;;;;;;;-0.94;90.02;97620.28;1728719;82;21285;-83
2020/12/21 04:13:47;;;;;;;19.15;10.98;;;;;;;-0.85;90.12;97629.28;1728474;83;21154;-83
2020/12/21 04:16:13;;;;;;;19.80;11.53;;;;;;;-0.85;90.12;97629.28;1728929;83;21141;-83
2020/12/21 04:18:40;;;;;;;19.30;11.03;;;;;;;-0.85;90.05;97636.59;1729048;83;21179;-83
2020/12/21 04:21:12;;;;;;;19.92;12.40;;;;;;;-0.88;90.09;97642.16;1728842;82;21516;-83
2020/12/21 04:23:40;;;;;;;13.05;7.40;;;;;;;-0.88;90.09;97642.16;1728823;83;21126;-82
2020/12/21 04:26:08;;;;;;;20.72;11.25;;;;;;;-0.98;89.84;97635.14;1728910;83;21143;-83
2020/12/21 04:28:39;;;;;;;19.00;11.08;;;;;;;-0.98;89.84;97635.14;1728791;83;21115;-83
2020/12/21 04:31:08;;;;;;;13.80;5.97;;;;;;;-0.88;90.18;97640.06;1728927;82;21166;-83
2020/12/21 04:33:35;;;;;;;17.10;9.73;;;;;;;-0.85;90.50;97641.80;1728935;83;21143;-83
2020/12/21 04:36:02;;;;;;;20.60;11.20;;;;;;;-0.85;90.32;97647.00;1729002;83;21170;-83
2020/12/21 04:38:29;;;;;;;20.55;12.30;;;;;;;-0.86;90.38;97649.30;1728921;83;21563;-83
2020/12/21 04:40:57;;;;;;;19.23;11.97;;;;;;;-0.86;90.38;97649.30;1728852;82;21528;-83
2020/12/21 04:43:25;;;;;;;19.55;9.45;;;;;;;-0.85;90.32;97652.70;1728802;83;21146;-83
2020/12/21 04:45:55;;;;;;;20.17;10.90;;;;;;;-0.84;90.53;97649.95;1728762;83;21552;-83
2020/12/21 04:48:24;;;;;;;15.23;8.73;;;;;;;-0.84;90.48;97647.34;1729033;83;21115;-83
2020/12/21 04:50:56;;;;;;;16.25;6.83;;;;;;;-0.81;90.67;97652.69;1728771;82;21167;-83
2020/12/21 04:53:24;;;;;;;21.30;12.33;;;;;;;-0.82;90.72;97651.88;1728951;83;21123;-83
2020/12/21 04:55:52;;;;;;;19.15;10.48;;;;;;;-0.83;90.62;97655.47;1728810;83;21139;-83
2020/12/21 04:58:19;;;;;;;20.50;11.83;;;;;;;-0.85;90.64;97640.50;1729007;83;21138;-83
2020/12/21 05:00:46;;;;;;;16.82;8.60;;;;;;;-0.88;90.50;97648.67;1728892;82;21170;-83
2020/12/21 05:03:13;;;;;;;16.67;9.10;;;;;;;-0.91;90.64;97655.55;1728811;83;21111;-82
2020/12/21 05:05:43;;;;;;;14.00;8.40;;;;;;;-0.97;90.67;97658.88;1731113;83;21526;-83
2020/12/21 05:08:23;;;;;;;19.60;11.55;;;;;;;-0.97;90.67;97658.88;1734410;83;21316;-83
2020/12/21 05:11:03;;;;;;;21.95;12.53;;;;;;;-0.96;90.77;97666.51;1734102;81;21156;-83
2020/12/21 05:13:33;;;;;;;23.32;13.65;;;;;;;-0.95;90.86;97658.20;1734363;82;21122;-83
2020/12/21 05:16:01;;;;;;;22.50;12.98;;;;;;;-0.95;90.76;97661.61;1734382;83;21625;-83
2020/12/21 05:18:34;;;;;;;15.95;8.55;;;;;;;-0.98;90.61;97659.87;1734276;83;21150;-83
2020/12/21 05:21:10;;;;;;;17.15;9.25;;;;;;;-1.00;90.90;97657.91;1734261;81;21522;-83
2020/12/21 05:23:37;;;;;;;19.60;12.68;;;;;;;-0.98;90.96;97673.69;1734555;83;21104;-83
2020/12/21 05:26:10;;;;;;;17.07;9.35;;;;;;;-1.01;90.78;97660.20;1734313;82;21142;-83
2020/12/21 05:28:40;;;;;;;20.82;12.88;;;;;;;-1.06;90.83;97666.45;1734362;83;21491;-83
2020/12/21 05:31:10;;;;;;;18.40;10.10;;;;;;;-1.18;91.05;97643.15;1734179;81;21272;-83
2020/12/21 05:33:46;;;;;;;18.15;10.68;;;;;;;-1.18;91.05;97643.15;1734473;82;21130;-83
2020/12/21 05:36:20;;;;;;;16.62;9.53;;;;;;;-1.04;91.23;97667.07;1734286;83;21281;-83
2020/12/21 05:39:01;;;;;;;15.98;9.63;;;;;;;-1.02;91.29;97662.00;1734559;83;21127;-83
2020/12/21 05:41:29;;;;;;;16.97;9.63;;;;;;;-0.97;91.41;97663.59;1734237;81;21510;-83
2020/12/21 05:44:03;;;;;;;18.90;11.30;;;;;;;-0.91;91.40;97660.75;1734326;83;21135;-83
2020/12/21 05:46:31;;;;;;;13.38;8.60;;;;;;;-0.88;91.40;97661.69;1734246;82;21480;-83
2020/12/21 05:49:00;;;;;;;21.50;10.93;;;;;;;-0.83;91.31;97667.19;1734248;83;21114;-83
2020/12/21 05:51:31;;;;;;;20.80;11.83;;;;;;;-0.80;91.25;97665.52;1734181;81;21268;-83
2020/12/21 05:54:02;;;;;;;15.98;8.25;;;;;;;-0.80;91.15;97660.31;1734241;83;21119;-83
2020/12/21 05:56:33;;;;;;;19.55;11.63;;;;;;;-0.80;91.15;97660.31;1734275;83;21114;-83
2020/12/21 05:59:02;;;;;;;13.43;8.50;;;;;;;-0.81;91.10;97665.20;1733934;83;21147;-83
2020/12/21 06:01:30;;;;;;;23.98;13.13;;;;;;;-0.79;91.17;97661.92;1734156;81;21273;-83
2020/12/21 06:04:04;;;;;;;17.17;9.85;;;;;;;-0.75;91.15;97668.37;1734238;83;21138;-83
2020/12/21 06:06:35;;;;;;;16.02;8.65;;;;;;;-0.74;91.12;97658.77;1730505;82;21320;-83
2020/12/21 06:09:05;;;;;;;;;;;;;;;-0.73;91.09;97662.48;1731441;83;21506;-83
2020/12/21 06:11:35;;;;;;;17.63;10.93;;;;;;;-0.70;90.99;97656.95;1729030;82;20376;-82
2020/12/21 06:14:16;;;;;;;13.00;8.20;;;;;;;-0.67;90.95;97660.48;1728928;83;21535;-83
2020/12/21 06:16:45;;;;;;;21.23;13.28;;;;;;;-0.63;90.97;97655.71;1728746;83;21261;-83
2020/12/21 06:19:16;;;;;;;20.57;11.68;;;;;;;-0.58;90.92;97650.75;1729056;83;21159;-83
2020/12/21 06:21:54;;;;;;;19.25;10.95;;;;;;;-0.54;90.89;97650.73;1727451;82;21130;-83
2020/12/21 06:24:25;;;;;;;19.42;11.85;;;;;;;-0.47;90.81;97656.00;1728754;83;21464;-83
2020/12/21 06:26:54;;;;;;;20.20;11.28;;;;;;;-0.54;90.72;97643.41;1728680;83;21301;-83
2020/12/21 06:29:25;;;;;;;21.27;11.73;;;;;;;-0.42;90.64;97654.98;1728855;83;21166;-83
2020/12/21 06:32:05;;;;;;;11.93;8.55;;;;;;;-0.39;90.58;97643.69;1728799;82;21319;-83
2020/12/21 06:34:38;;;;;;;19.17;10.95;;;;;;;-0.35;90.45;97642.82;1728815;83;21305;-83
2020/12/21 06:37:16;;;;;;;20.68;11.43;;;;;;;-0.30;90.36;97646.48;1728623;83;21123;-83
2020/12/21 06:39:44;;;;;;;9.65;6.10;;;;;;;-0.19;90.21;97654.32;1728693;82;21254;-83
2020/12/21 06:42:18;;;;;;;15.25;10.05;;;;;;;-0.19;90.21;97654.32;1728619;83;21297;-83
2020/12/21 06:44:45;;;;;;;17.45;10.13;;;;;;;-0.13;90.07;97657.51;1727854;83;21278;-83
2020/12/21 06:47:13;;;;;;;15.50;8.53;;;;;;;-0.09;89.96;97661.35;1728603;83;21292;-83
2020/12/21 06:49:40;;;;;;;15.18;8.75;;;;;;;-0.05;89.81;97667.00;1728751;82;21142;-83
2020/12/21 06:52:08;;;;;;;18.42;11.18;;;;;;;-0.03;89.70;97663.20;1728673;83;21622;-83
2020/12/21 06:54:36;;;;;;;15.48;8.78;;;;;;;-0.01;89.67;97665.62;1728668;83;21187;-83
2020/12/21 06:57:04;;;;;;;19.02;11.18;;;;;;;0.03;89.61;97666.89;1728272;83;21064;-83
2020/12/21 06:59:31;;;;;;;10.38;5.90;;;;;;;0.10;89.41;97671.66;1728604;82;21637;-83
2020/12/21 07:01:58;;;;;;;18.07;10.82;;;;;;;0.10;89.41;97671.66;1728650;83;21281;-83
2020/12/21 07:04:32;;;;;;;14.53;9.15;;;;;;;0.12;89.29;97676.19;1728682;83;21281;-83
2020/12/21 07:07:05;;;;;;;19.45;11.00;;;;;;;0.03;89.18;97663.48;1732521;83;21169;-83
2020/12/21 07:09:38;;;;;;;13.22;7.55;;;;;;;0.18;88.94;97688.50;1734097;81;21130;-83
2020/12/21 07:12:08;;;;;;;15.85;10.13;;;;;;;0.18;88.94;97688.50;1734091;82;21132;-83
2020/12/21 07:14:39;;;;;;;11.65;6.45;;;;;;;0.20;88.71;97691.72;1734240;83;21148;-83
2020/12/21 07:17:15;;;;;;;17.98;11.08;;;;;;;0.27;88.58;97696.49;1734062;83;21114;-83
2020/12/21 07:19:44;;;;;;;15.65;9.40;;;;;;;0.32;88.50;97693.84;1734104;81;21111;-83
2020/12/21 07:22:14;;;;;;;16.13;10.03;;;;;;;0.39;88.47;97692.09;1734570;83;21163;-83
2020/12/21 07:24:43;;;;;;;17.07;10.15;;;;;;;0.47;88.33;97695.39;1734178;83;21264;-83
2020/12/21 07:27:10;;;;;;;16.62;10.90;;;;;;;0.69;88.18;97694.86;1734045;83;21166;-83
2020/12/21 07:29:41;;;;;;;15.83;8.65;;;;;;;0.76;87.94;97694.92;1734090;81;21138;-83
2020/12/21 07:32:08;;;;;;;;;;;;;;;0.66;87.45;97701.77;1736702;83;21143;-83
2020/12/21 07:34:38;;;;;;;18.30;10.65;;;;;;;0.61;87.55;97696.81;1734179;82;20130;-83
2020/12/21 07:37:12;;;;;;;15.20;9.23;;;;;;;0.56;87.55;97700.80;1734041;82;21134;-83
2020/12/21 07:39:40;;;;;;;18.50;10.70;;;;;;;0.54;87.49;97704.07;1734437;81;21147;-83
2020/12/21 07:42:12;;;;;;;16.70;10.20;;;;;;;0.53;87.54;97699.05;1734346;83;21617;-83
2020/12/21 07:44:47;;;;;;;15.98;8.95;;;;;;;0.53;87.67;97699.84;1734205;82;21609;-83
2020/12/21 07:47:26;;;;;;;14.40;9.05;;;;;;;0.55;87.56;97700.96;1734170;83;21138;-83
2020/12/21 07:49:54;;;;;;;15.18;8.90;;;;;;;0.55;87.35;97697.05;1734349;81;21206;-83
2020/12/21 07:52:23;;;;;;;13.58;8.48;;;;;;;0.56;87.44;97700.80;1734252;82;21636;-83
2020/12/21 07:54:51;;;;;;;15.75;9.13;;;;;;;0.57;87.41;97701.11;1734393;83;21138;-83
2020/12/21 07:57:19;;;;;;;16.80;9.38;;;;;;;0.61;87.46;97700.23;1734140;83;21277;-83
2020/12/21 08:00:01;;;;;;;13.72;8.70;;;;;;;0.64;87.41;97693.32;1734324;81;21594;-83
2020/12/21 08:02:29;;;;;;;16.95;9.55;;;;;;;0.69;87.40;97692.75;1734424;83;21292;-82
2020/12/21 08:04:57;;;;;;;13.53;8.45;;;;;;;0.72;87.52;97693.20;1734277;83;21150;-82
2020/12/21 08:07:29;;;;;;;15.63;9.78;;;;;;;0.78;87.43;97698.16;1734141;82;21174;-82
2020/12/21 08:09:58;;;;;;;12.63;8.50;;;;;;;0.83;87.52;97695.77;1734199;81;21338;-82
2020/12/21 08:12:32;;;;;;;13.30;7.87;;;;;;;0.88;87.50;97698.14;1734425;83;21287;-82
2020/12/21 08:15:01;;;;;;;16.25;8.95;;;;;;;0.94;87.52;97699.17;1734529;83;21139;-83
2020/12/21 08:17:32;;;;;;;13.65;7.97;;;;;;;0.97;87.45;97701.39;1734265;82;21657;-83
2020/12/21 08:20:08;;;;;;;11.65;7.37;;;;;;;1.00;87.29;97701.04;1734348;81;21281;-83
2020/12/21 08:22:38;;;;;;;15.45;8.78;;;;;;;1.04;87.36;97700.95;1734400;83;21253;-82
2020/12/21 08:25:15;;;;;;;13.05;8.30;;;;;;;1.06;87.16;97702.88;1734601;82;21142;-83
2020/12/21 08:27:51;;;;;;;16.90;9.65;;;;;;;1.10;87.06;97698.07;1734278;82;21475;-83
2020/12/21 08:30:23;;;;;;;14.43;8.93;;;;;;;1.12;87.17;97699.48;1734242;81;21288;-82
2020/12/21 08:32:52;;;;;;;20.27;10.23;;;;;;;1.15;86.72;97696.52;1734354;83;21293;-82
2020/12/21 08:35:30;;;;;;;16.48;9.73;;;;;;;1.15;86.76;97704.35;1734314;82;21301;-82
2020/12/21 08:38:11;;;;;;;16.20;9.15;;;;;;;1.21;86.86;97707.19;1734153;83;21269;-83
2020/12/21 08:40:38;;;;;;;13.03;8.40;;;;;;;1.26;86.87;97706.10;1734249;81;21269;-82
2020/12/21 08:43:05;;;;;;;13.22;8.65;;;;;;;1.30;86.82;97702.13;1734280;82;21289;-82
2020/12/21 08:45:37;;;;;;;14.55;8.23;;;;;;;1.37;86.76;97701.15;1734283;83;21167;-83
2020/12/21 08:48:05;;;;;;;12.85;8.20;;;;;;;1.42;86.75;97694.86;1734161;83;21124;-83
2020/12/21 08:50:32;;;;;;;12.60;7.50;;;;;;;1.48;86.58;97692.77;1734224;81;21282;-83
2020/12/21 08:52:59;;;;;;;11.18;6.45;;;;;;;1.53;86.51;97700.02;1734248;83;21514;-82
2020/12/21 08:55:27;;;;;;;10.88;6.20;;;;;;;1.55;86.14;97704.58;1734253;83;21249;-82
2020/12/21 08:57:54;;;;;;;13.62;6.58;;;;;;;1.55;85.74;97701.97;1734108;83;21137;-83
2020/12/21 09:00:21;;;;;;;12.07;6.53;;;;;;;1.57;85.90;97700.47;1734196;81;21197;-83
2020/12/21 09:02:49;;;;;;;11.38;6.60;;;;;;;1.61;85.88;97702.98;1734187;83;21131;-83
2020/12/21 09:05:16;;;;;;;11.95;7.12;;;;;;;1.66;85.94;97704.00;1734299;82;21293;-82
2020/12/21 09:07:43;;;;;;;11.93;6.75;;;;;;;1.67;85.53;97694.36;1729930;82;21297;-83
2020/12/21 09:10:11;;;;;;;14.33;8.15;;;;;;;1.67;85.69;97686.52;1728951;82;21146;-83
2020/12/21 09:12:38;;;;;;;13.45;7.90;;;;;;;1.69;85.64;97688.43;1728868;83;21151;-82
2020/12/21 09:15:05;;;;;;;12.63;8.45;;;;;;;1.67;85.48;97685.21;1728714;83;21160;-82
2020/12/21 09:17:36;;;;;;;16.77;8.75;;;;;;;1.68;85.47;97686.81;1728677;83;21135;-83
2020/12/21 09:20:04;;;;;;;14.95;9.45;;;;;;;1.68;85.34;97688.12;1728725;82;21150;-82
2020/12/21 09:22:31;;;;;;;15.90;9.75;;;;;;;1.72;85.68;97687.56;1728672;83;21131;-83
2020/12/21 09:24:58;;;;;;;18.02;10.45;;;;;;;1.75;85.51;97687.16;1729173;83;21111;-83
2020/12/21 09:27:26;;;;;;;15.83;9.83;;;;;;;1.79;85.68;97683.65;1728649;83;21162;-82
2020/12/21 09:29:53;;;;;;;15.93;9.65;;;;;;;1.87;85.61;97684.80;1728893;82;21191;-83
2020/12/21 09:32:20;;;;;;;19.48;10.85;;;;;;;1.88;85.40;97674.64;1728766;83;21126;-82
2020/12/21 09:34:48;;;;;;;18.30;11.08;;;;;;;1.87;85.37;97669.11;1728875;83;21171;-83
2020/12/21 09:37:15;;;;;;;16.57;10.30;;;;;;;1.96;85.63;97666.60;1728708;83;21537;-83
2020/12/21 09:39:42;;;;;;;16.93;9.78;;;;;;;2.15;85.92;97667.67;1728891;82;21158;-83
2020/12/21 09:42:10;;;;;;;13.93;8.25;;;;;;;2.38;85.80;97659.44;1728685;83;21142;-82
2020/12/21 09:44:37;;;;;;;15.10;11.53;;;;;;;2.61;85.50;97653.31;1729006;83;21163;-83
2020/12/21 09:47:04;;;;;;;19.00;11.33;;;;;;;2.81;85.19;97654.60;1728639;83;21134;-83
2020/12/21 09:49:31;;;;;;;15.90;8.10;;;;;;;3.05;84.83;97653.67;1728696;82;21142;-83
2020/12/21 09:51:58;;;;;;;15.65;9.78;;;;;;;3.27;83.46;97659.78;1728847;83;21176;-83
2020/12/21 09:54:26;;;;;;;11.85;8.25;;;;;;;3.37;82.91;97653.28;1728657;83;21174;-83
2020/12/21 09:56:53;;;;;;;16.35;8.75;;;;;;;3.56;82.95;97662.92;1728689;83;21167;-83
2020/12/21 09:59:20;;;;;;;16.02;9.20;;;;;;;3.73;83.04;97655.39;1728762;83;21493;-83
2020/12/21 10:01:47;;;;;;;14.87;9.03;;;;;;;3.61;81.19;97648.67;1728781;82;21150;-83
2020/12/21 10:04:15;;;;;;;14.85;9.13;;;;;;;3.40;81.17;97656.83;1728712;83;21539;-83
2020/12/21 10:06:48;;;;;;;14.63;8.63;;;;;;;3.31;81.79;97652.81;1729858;83;21165;-83
2020/12/21 10:09:16;;;;;;;15.55;9.50;;;;;;;3.34;81.43;97657.13;1734088;82;21123;-83
2020/12/21 10:11:44;;;;;;;11.90;8.00;;;;;;;3.32;81.21;97654.42;1734475;81;21189;-83
2020/12/21 10:14:11;;;;;;;18.50;10.50;;;;;;;3.41;81.36;97646.64;1734109;82;21111;-83
2020/12/21 10:16:38;;;;;;;12.10;7.70;;;;;;;3.50;81.38;97650.12;1734218;82;21263;-83
2020/12/21 10:19:06;;;;;;;15.30;9.25;;;;;;;3.54;80.28;97647.41;1734135;82;21107;-83
2020/12/21 10:21:33;;;;;;;11.90;7.47;;;;;;;3.43;80.62;97638.87;1734343;81;21293;-83
2020/12/21 10:24:01;;;;;;;13.40;8.55;;;;;;;3.50;80.59;97641.45;1734252;83;21281;-83
2020/12/21 10:26:28;;;;;;;13.83;8.08;;;;;;;3.45;80.12;97637.34;1734214;83;21130;-83
2020/12/21 10:28:55;;;;;;;16.02;9.40;;;;;;;3.63;80.35;97639.28;1734105;83;21168;-83
2020/12/21 10:31:22;;;;;;;18.48;10.95;;;;;;;3.73;80.49;97631.28;1734155;81;21575;-83
2020/12/21 10:33:49;;;;;;;14.23;9.00;;;;;;;3.72;79.88;97628.87;1734111;82;21138;-83
2020/12/21 10:36:16;;;;;;;14.95;9.38;;;;;;;3.70;80.09;97633.02;1734151;83;21875;-83
2020/12/21 10:38:44;;;;;;;13.13;7.12;;;;;;;3.65;79.92;97637.25;1734112;83;21134;-83
2020/12/21 10:41:11;;;;;;;13.22;8.60;;;;;;;3.52;79.04;97635.52;1734201;81;21138;-83
2020/12/21 10:43:38;;;;;;;19.23;11.83;;;;;;;3.33;79.27;97641.11;1734119;83;21525;-83
2020/12/21 10:46:05;;;;;;;14.45;7.97;;;;;;;3.36;80.15;97642.00;1734271;83;21277;-83
2020/12/21 10:48:32;;;;;;;14.98;8.33;;;;;;;3.38;79.81;97636.07;1734105;82;21200;-83
2020/12/21 10:51:00;;;;;;;11.73;7.55;;;;;;;3.28;79.67;97637.00;1734093;81;21176;-83
2020/12/21 10:53:27;;;;;;;14.95;8.28;;;;;;;3.24;79.48;97634.50;1734094;82;21139;-83
2020/12/21 10:55:54;;;;;;;13.43;7.95;;;;;;;3.25;79.88;97625.63;1734124;83;21162;-83
2020/12/21 10:58:21;;;;;;;11.63;7.35;;;;;;;3.32;79.91;97623.78;1734021;83;21142;-83
2020/12/21 11:00:49;;;;;;;13.30;7.83;;;;;;;3.42;79.89;97621.53;1734115;81;21184;-83
2020/12/21 11:03:16;;;;;;;13.95;8.33;;;;;;;3.42;79.84;97617.60;1734190;83;21159;-83
2020/12/21 11:05:43;;;;;;;13.13;7.75;;;;;;;3.49;79.91;97614.43;1734111;82;21115;-83
2020/12/21 11:08:10;;;;;;;11.25;7.28;;;;;;;3.47;79.79;97608.59;1734595;82;21154;-83
2020/12/21 11:10:37;;;;;;;12.82;7.65;;;;;;;3.40;79.37;97605.22;1734873;81;21147;-83
2020/12/21 11:13:05;;;;;;;13.13;8.35;;;;;;;3.32;79.11;97592.84;1734746;83;21103;-83
2020/12/21 11:15:32;;;;;;;11.15;7.80;;;;;;;3.29;79.62;97603.23;1734889;83;21163;-83
2020/12/21 11:17:59;;;;;;;12.50;6.65;;;;;;;3.52;80.18;97603.55;1734851;83;21099;-83
2020/12/21 11:20:27;;;;;;;10.53;7.00;;;;;;;3.72;78.89;97603.45;1734859;81;21151;-83
2020/12/21 11:22:56;;;;;;;11.15;6.78;;;;;;;3.80;79.20;97596.66;1735062;83;21111;-83
2020/12/21 11:25:23;;;;;;;14.33;8.58;;;;;;;3.95;79.29;97590.31;1735088;83;21138;-83
2020/12/21 11:27:50;;;;;;;12.58;7.58;;;;;;;4.18;79.36;97599.22;1735208;83;21146;-82
2020/12/21 11:30:18;;;;;;;15.60;8.83;;;;;;;4.43;78.91;97582.68;1734993;81;21191;-82